Avondale Estates, Georgia
Current Conditions -  °F | °C
As of 6:53 PM on Friday 19 Dec 2014 (Local Time) from KPDK Reporting Station
Clear Clear  
Wind Chill: 44°   Ceiling: Unl
Heat Index: 47°   Visibility: 10mi
Dew Point: 34°   Wind: 6mph
Humidity: 61%   Direction: 320°NW
Pressure: 30.13"   Gusts: NA
Location:  33.77°N, 84.27°W
Report Text: KPDK 192353Z 32005KT 10SM CLR 08/01 A3013 RMK AO2 SLP213 T00830011 10122 20083 53013
Loading
Personal Weather Stations






























Interactive Weather Map New forecast layout! Learn more

10-Day Weather Forecast

Advertisements
Track Severe Weather on mobile